sensor_id;sensor_type;location;lat;lon;timestamp;temperature;humidity
78315;SHT31;68596;52.080;4.662;2023-11-21T00:00:05;10.89;78.90
78315;SHT31;68596;52.080;4.662;2023-11-21T00:02:54;10.97;78.76
78315;SHT31;68596;52.080;4.662;2023-11-21T00:05:38;11.00;78.70
78315;SHT31;68596;52.080;4.662;2023-11-21T00:08:25;11.01;78.52
78315;SHT31;68596;52.080;4.662;2023-11-21T00:11:09;11.00;78.66
78315;SHT31;68596;52.080;4.662;2023-11-21T00:13:54;10.97;78.80
78315;SHT31;68596;52.080;4.662;2023-11-21T00:16:38;11.00;78.96
78315;SHT31;68596;52.080;4.662;2023-11-21T00:19:23;10.99;79.01
78315;SHT31;68596;52.080;4.662;2023-11-21T00:22:08;11.06;79.07
78315;SHT31;68596;52.080;4.662;2023-11-21T00:24:52;11.08;78.95
78315;SHT31;68596;52.080;4.662;2023-11-21T00:27:37;11.06;79.05
78315;SHT31;68596;52.080;4.662;2023-11-21T00:30:22;11.07;79.17
78315;SHT31;68596;52.080;4.662;2023-11-21T00:33:07;11.18;78.93
78315;SHT31;68596;52.080;4.662;2023-11-21T00:35:54;11.15;79.09
78315;SHT31;68596;52.080;4.662;2023-11-21T00:38:38;11.15;79.10
78315;SHT31;68596;52.080;4.662;2023-11-21T00:41:25;11.11;79.14
78315;SHT31;68596;52.080;4.662;2023-11-21T00:44:13;11.08;79.49
78315;SHT31;68596;52.080;4.662;2023-11-21T00:46:57;11.06;79.62
78315;SHT31;68596;52.080;4.662;2023-11-21T00:49:41;11.10;79.66
78315;SHT31;68596;52.080;4.662;2023-11-21T00:52:25;11.17;79.49
78315;SHT31;68596;52.080;4.662;2023-11-21T00:55:09;11.20;79.43
78315;SHT31;68596;52.080;4.662;2023-11-21T00:57:54;11.17;79.53
78315;SHT31;68596;52.080;4.662;2023-11-21T01:00:38;11.18;79.61
78315;SHT31;68596;52.080;4.662;2023-11-21T01:03:23;11.21;79.55
78315;SHT31;68596;52.080;4.662;2023-11-21T01:06:07;11.14;79.70
78315;SHT31;68596;52.080;4.662;2023-11-21T01:08:52;11.14;80.08
78315;SHT31;68596;52.080;4.662;2023-11-21T01:11:37;11.17;80.04
78315;SHT31;68596;52.080;4.662;2023-11-21T01:14:22;11.28;79.88
78315;SHT31;68596;52.080;4.662;2023-11-21T01:17:06;11.31;79.61
78315;SHT31;68596;52.080;4.662;2023-11-21T01:19:52;11.34;79.42
78315;SHT31;68596;52.080;4.662;2023-11-21T01:22:36;11.39;79.33
78315;SHT31;68596;52.080;4.662;2023-11-21T01:25:20;11.41;79.26
78315;SHT31;68596;52.080;4.662;2023-11-21T01:28:05;11.44;79.21
78315;SHT31;68596;52.080;4.662;2023-11-21T01:30:49;11.51;78.97
78315;SHT31;68596;52.080;4.662;2023-11-21T01:33:33;11.51;78.96
78315;SHT31;68596;52.080;4.662;2023-11-21T01:36:17;11.55;78.92
78315;SHT31;68596;52.080;4.662;2023-11-21T01:39:01;11.51;79.09
78315;SHT31;68596;52.080;4.662;2023-11-21T01:41:52;11.47;79.35
78315;SHT31;68596;52.080;4.662;2023-11-21T01:44:36;11.50;79.42
78315;SHT31;68596;52.080;4.662;2023-11-21T01:47:20;11.50;79.39
78315;SHT31;68596;52.080;4.662;2023-11-21T01:50:07;11.55;79.32
78315;SHT31;68596;52.080;4.662;2023-11-21T01:52:52;11.58;79.07
78315;SHT31;68596;52.080;4.662;2023-11-21T01:55:37;11.54;79.35
78315;SHT31;68596;52.080;4.662;2023-11-21T01:58:22;11.47;79.55
78315;SHT31;68596;52.080;4.662;2023-11-21T02:01:06;11.47;79.71
78315;SHT31;68596;52.080;4.662;2023-11-21T02:03:50;11.54;79.54
78315;SHT31;68596;52.080;4.662;2023-11-21T02:06:34;11.54;79.31
78315;SHT31;68596;52.080;4.662;2023-11-21T02:09:28;11.48;79.57
78315;SHT31;68596;52.080;4.662;2023-11-21T02:12:15;11.45;79.83
78315;SHT31;68596;52.080;4.662;2023-11-21T02:15:00;11.44;79.92
78315;SHT31;68596;52.080;4.662;2023-11-21T02:17:44;11.55;79.80
78315;SHT31;68596;52.080;4.662;2023-11-21T02:20:28;11.54;79.66
78315;SHT31;68596;52.080;4.662;2023-11-21T02:23:13;11.52;79.83
78315;SHT31;68596;52.080;4.662;2023-11-21T02:25:58;11.55;79.82
78315;SHT31;68596;52.080;4.662;2023-11-21T02:28:42;11.62;79.78
78315;SHT31;68596;52.080;4.662;2023-11-21T02:31:26;11.69;79.69
78315;SHT31;68596;52.080;4.662;2023-11-21T02:34:11;11.75;79.54
78315;SHT31;68596;52.080;4.662;2023-11-21T02:36:57;11.78;79.42
78315;SHT31;68596;52.080;4.662;2023-11-21T02:39:41;11.79;79.38
78315;SHT31;68596;52.080;4.662;2023-11-21T02:42:25;11.81;79.38
78315;SHT31;68596;52.080;4.662;2023-11-21T02:45:09;11.82;79.43
78315;SHT31;68596;52.080;4.662;2023-11-21T02:47:56;11.82;79.39
78315;SHT31;68596;52.080;4.662;2023-11-21T02:50:40;11.82;79.42
78315;SHT31;68596;52.080;4.662;2023-11-21T02:53:24;11.82;79.48
78315;SHT31;68596;52.080;4.662;2023-11-21T02:56:09;11.75;79.66
78315;SHT31;68596;52.080;4.662;2023-11-21T02:58:56;11.78;79.65
78315;SHT31;68596;52.080;4.662;2023-11-21T03:01:40;11.81;79.56
78315;SHT31;68596;52.080;4.662;2023-11-21T03:04:24;11.79;79.66
78315;SHT31;68596;52.080;4.662;2023-11-21T03:07:09;11.79;79.75
78315;SHT31;68596;52.080;4.662;2023-11-21T03:09:53;11.78;79.80
78315;SHT31;68596;52.080;4.662;2023-11-21T03:12:38;11.69;79.94
78315;SHT31;68596;52.080;4.662;2023-11-21T03:15:23;11.65;80.33
78315;SHT31;68596;52.080;4.662;2023-11-21T03:18:07;11.64;80.30
78315;SHT31;68596;52.080;4.662;2023-11-21T03:20:53;11.61;80.39
78315;SHT31;68596;52.080;4.662;2023-11-21T03:23:37;11.55;80.68
78315;SHT31;68596;52.080;4.662;2023-11-21T03:26:22;11.55;80.79
78315;SHT31;68596;52.080;4.662;2023-11-21T03:29:06;11.59;80.86
78315;SHT31;68596;52.080;4.662;2023-11-21T03:31:50;11.62;80.88
78315;SHT31;68596;52.080;4.662;2023-11-21T03:34:56;11.75;80.47
78315;SHT31;68596;52.080;4.662;2023-11-21T03:37:41;11.82;80.14
78315;SHT31;68596;52.080;4.662;2023-11-21T03:40:27;11.79;80.16
78315;SHT31;68596;52.080;4.662;2023-11-21T03:43:11;11.83;80.06
78315;SHT31;68596;52.080;4.662;2023-11-21T03:45:55;11.81;80.17
78315;SHT31;68596;52.080;4.662;2023-11-21T03:48:39;11.81;80.25
78315;SHT31;68596;52.080;4.662;2023-11-21T03:51:23;11.75;80.33
78315;SHT31;68596;52.080;4.662;2023-11-21T03:54:07;11.76;80.33
78315;SHT31;68596;52.080;4.662;2023-11-21T03:56:52;11.86;80.07
78315;SHT31;68596;52.080;4.662;2023-11-21T03:59:40;11.85;80.10
78315;SHT31;68596;52.080;4.662;2023-11-21T04:02:24;11.88;79.97
78315;SHT31;68596;52.080;4.662;2023-11-21T04:05:10;11.90;79.92
78315;SHT31;68596;52.080;4.662;2023-11-21T04:07:54;11.93;79.94
78315;SHT31;68596;52.080;4.662;2023-11-21T04:10:38;11.90;79.84
78315;SHT31;68596;52.080;4.662;2023-11-21T04:13:23;11.88;80.13
78315;SHT31;68596;52.080;4.662;2023-11-21T04:16:08;11.92;80.11
78315;SHT31;68596;52.080;4.662;2023-11-21T04:18:52;11.86;80.26
78315;SHT31;68596;52.080;4.662;2023-11-21T04:21:37;11.79;80.52
78315;SHT31;68596;52.080;4.662;2023-11-21T04:24:22;11.81;80.59
78315;SHT31;68596;52.080;4.662;2023-11-21T04:27:06;11.85;80.48
78315;SHT31;68596;52.080;4.662;2023-11-21T04:29:50;11.89;80.29
78315;SHT31;68596;52.080;4.662;2023-11-21T04:32:35;11.90;80.34
78315;SHT31;68596;52.080;4.662;2023-11-21T04:35:18;11.86;80.63
78315;SHT31;68596;52.080;4.662;2023-11-21T04:38:03;11.86;80.45
78315;SHT31;68596;52.080;4.662;2023-11-21T04:40:47;11.90;80.32
78315;SHT31;68596;52.080;4.662;2023-11-21T04:43:31;11.95;80.21
78315;SHT31;68596;52.080;4.662;2023-11-21T04:46:16;11.96;80.15
78315;SHT31;68596;52.080;4.662;2023-11-21T04:49:00;12.00;80.12
78315;SHT31;68596;52.080;4.662;2023-11-21T04:51:44;12.03;80.05
78315;SHT31;68596;52.080;4.662;2023-11-21T04:54:30;12.03;80.08
78315;SHT31;68596;52.080;4.662;2023-11-21T04:57:14;11.99;80.16
78315;SHT31;68596;52.080;4.662;2023-11-21T04:59:58;11.99;80.22
78315;SHT31;68596;52.080;4.662;2023-11-21T05:02:42;12.03;80.17
78315;SHT31;68596;52.080;4.662;2023-11-21T05:05:28;12.02;80.09
78315;SHT31;68596;52.080;4.662;2023-11-21T05:08:13;12.05;80.16
78315;SHT31;68596;52.080;4.662;2023-11-21T05:10:57;12.02;80.15
78315;SHT31;68596;52.080;4.662;2023-11-21T05:13:41;12.05;80.06
78315;SHT31;68596;52.080;4.662;2023-11-21T05:16:26;12.00;80.07
78315;SHT31;68596;52.080;4.662;2023-11-21T05:19:11;12.03;80.02
78315;SHT31;68596;52.080;4.662;2023-11-21T05:21:56;11.99;79.76
78315;SHT31;68596;52.080;4.662;2023-11-21T05:24:40;12.00;79.64
78315;SHT31;68596;52.080;4.662;2023-11-21T05:27:24;11.98;79.68
78315;SHT31;68596;52.080;4.662;2023-11-21T05:30:09;11.95;79.88
78315;SHT31;68596;52.080;4.662;2023-11-21T05:32:55;11.95;79.90
78315;SHT31;68596;52.080;4.662;2023-11-21T05:35:40;11.95;80.11
78315;SHT31;68596;52.080;4.662;2023-11-21T05:38:24;11.96;80.05
78315;SHT31;68596;52.080;4.662;2023-11-21T05:41:08;11.98;80.07
78315;SHT31;68596;52.080;4.662;2023-11-21T05:43:54;11.99;79.98
78315;SHT31;68596;52.080;4.662;2023-11-21T05:46:38;11.96;80.04
78315;SHT31;68596;52.080;4.662;2023-11-21T05:49:23;11.96;80.00
78315;SHT31;68596;52.080;4.662;2023-11-21T05:52:10;11.95;79.99
78315;SHT31;68596;52.080;4.662;2023-11-21T05:54:54;11.98;80.08
78315;SHT31;68596;52.080;4.662;2023-11-21T05:57:39;11.99;80.02
78315;SHT31;68596;52.080;4.662;2023-11-21T06:00:25;11.99;80.13
78315;SHT31;68596;52.080;4.662;2023-11-21T06:03:09;11.99;80.22
78315;SHT31;68596;52.080;4.662;2023-11-21T06:05:53;11.99;80.31
78315;SHT31;68596;52.080;4.662;2023-11-21T06:08:38;12.02;80.28
78315;SHT31;68596;52.080;4.662;2023-11-21T06:11:22;12.05;80.25
78315;SHT31;68596;52.080;4.662;2023-11-21T06:14:06;12.05;80.25
78315;SHT31;68596;52.080;4.662;2023-11-21T06:16:53;12.09;80.29
78315;SHT31;68596;52.080;4.662;2023-11-21T06:19:37;12.08;80.29
78315;SHT31;68596;52.080;4.662;2023-11-21T06:22:22;12.12;80.24
78315;SHT31;68596;52.080;4.662;2023-11-21T06:25:07;12.08;80.30
78315;SHT31;68596;52.080;4.662;2023-11-21T06:27:52;12.10;80.34
78315;SHT31;68596;52.080;4.662;2023-11-21T06:30:37;12.08;80.28
78315;SHT31;68596;52.080;4.662;2023-11-21T06:33:22;12.13;79.98
78315;SHT31;68596;52.080;4.662;2023-11-21T06:36:07;12.09;80.00
78315;SHT31;68596;52.080;4.662;2023-11-21T06:38:54;12.08;80.04
78315;SHT31;68596;52.080;4.662;2023-11-21T06:41:39;12.05;80.13
78315;SHT31;68596;52.080;4.662;2023-11-21T06:44:23;12.03;80.34
78315;SHT31;68596;52.080;4.662;2023-11-21T06:47:07;12.00;80.55
78315;SHT31;68596;52.080;4.662;2023-11-21T06:49:53;11.99;80.56
78315;SHT31;68596;52.080;4.662;2023-11-21T06:52:39;12.03;80.64
78315;SHT31;68596;52.080;4.662;2023-11-21T06:55:23;12.06;80.71
78315;SHT31;68596;52.080;4.662;2023-11-21T06:58:07;12.08;80.80
78315;SHT31;68596;52.080;4.662;2023-11-21T07:00:52;12.10;80.63
78315;SHT31;68596;52.080;4.662;2023-11-21T07:03:37;12.15;80.56
78315;SHT31;68596;52.080;4.662;2023-11-21T07:06:21;12.16;80.53
78315;SHT31;68596;52.080;4.662;2023-11-21T07:09:07;12.19;80.56
78315;SHT31;68596;52.080;4.662;2023-11-21T07:11:52;12.22;80.44
78315;SHT31;68596;52.080;4.662;2023-11-21T07:14:37;12.25;80.43
78315;SHT31;68596;52.080;4.662;2023-11-21T07:17:23;12.29;80.40
78315;SHT31;68596;52.080;4.662;2023-11-21T07:20:08;12.29;80.44
78315;SHT31;68596;52.080;4.662;2023-11-21T07:22:52;12.29;80.36
78315;SHT31;68596;52.080;4.662;2023-11-21T07:25:36;12.34;80.28
78315;SHT31;68596;52.080;4.662;2023-11-21T07:28:20;12.32;80.35
78315;SHT31;68596;52.080;4.662;2023-11-21T07:31:05;12.32;80.36
78315;SHT31;68596;52.080;4.662;2023-11-21T07:33:49;12.34;80.27
78315;SHT31;68596;52.080;4.662;2023-11-21T07:36:34;12.36;80.40
78315;SHT31;68596;52.080;4.662;2023-11-21T07:39:18;12.40;80.27
78315;SHT31;68596;52.080;4.662;2023-11-21T07:42:03;12.37;80.21
78315;SHT31;68596;52.080;4.662;2023-11-21T07:44:48;12.39;80.28
78315;SHT31;68596;52.080;4.662;2023-11-21T07:47:34;12.39;80.34
78315;SHT31;68596;52.080;4.662;2023-11-21T07:50:18;12.36;80.38
78315;SHT31;68596;52.080;4.662;2023-11-21T07:53:02;12.36;80.31
78315;SHT31;68596;52.080;4.662;2023-11-21T07:55:49;12.40;80.19
78315;SHT31;68596;52.080;4.662;2023-11-21T07:58:37;12.39;80.17
78315;SHT31;68596;52.080;4.662;2023-11-21T08:01:22;12.43;79.93
78315;SHT31;68596;52.080;4.662;2023-11-21T08:04:06;12.44;79.90
78315;SHT31;68596;52.080;4.662;2023-11-21T08:06:52;12.46;79.85
78315;SHT31;68596;52.080;4.662;2023-11-21T08:09:36;12.46;80.12
78315;SHT31;68596;52.080;4.662;2023-11-21T08:12:20;12.49;80.14
78315;SHT31;68596;52.080;4.662;2023-11-21T08:15:05;12.49;80.28
78315;SHT31;68596;52.080;4.662;2023-11-21T08:17:49;12.51;80.27
78315;SHT31;68596;52.080;4.662;2023-11-21T08:20:34;12.51;80.31
78315;SHT31;68596;52.080;4.662;2023-11-21T08:23:20;12.53;80.32
78315;SHT31;68596;52.080;4.662;2023-11-21T08:26:09;12.54;80.43
78315;SHT31;68596;52.080;4.662;2023-11-21T08:28:53;12.53;80.53
78315;SHT31;68596;52.080;4.662;2023-11-21T08:31:37;12.53;80.55
78315;SHT31;68596;52.080;4.662;2023-11-21T08:34:22;12.51;80.59
78315;SHT31;68596;52.080;4.662;2023-11-21T08:37:06;12.53;80.65
78315;SHT31;68596;52.080;4.662;2023-11-21T08:39:50;12.54;80.57
78315;SHT31;68596;52.080;4.662;2023-11-21T08:42:36;12.54;80.60
78315;SHT31;68596;52.080;4.662;2023-11-21T08:45:22;12.59;80.68
78315;SHT31;68596;52.080;4.662;2023-11-21T08:48:06;12.60;80.73
78315;SHT31;68596;52.080;4.662;2023-11-21T08:50:51;12.65;80.74
78315;SHT31;68596;52.080;4.662;2023-11-21T08:53:35;12.68;80.65
78315;SHT31;68596;52.080;4.662;2023-11-21T08:56:19;12.71;80.66
78315;SHT31;68596;52.080;4.662;2023-11-21T08:59:04;12.74;80.70
78315;SHT31;68596;52.080;4.662;2023-11-21T09:01:48;12.76;80.72
78315;SHT31;68596;52.080;4.662;2023-11-21T09:04:32;12.77;80.69
78315;SHT31;68596;52.080;4.662;2023-11-21T09:07:16;12.77;80.75
78315;SHT31;68596;52.080;4.662;2023-11-21T09:10:04;12.77;80.74
78315;SHT31;68596;52.080;4.662;2023-11-21T09:12:52;12.80;80.68
78315;SHT31;68596;52.080;4.662;2023-11-21T09:15:36;12.80;80.69
78315;SHT31;68596;52.080;4.662;2023-11-21T09:18:20;12.79;80.78
78315;SHT31;68596;52.080;4.662;2023-11-21T09:21:04;12.80;80.70
78315;SHT31;68596;52.080;4.662;2023-11-21T09:23:49;12.79;80.68
78315;SHT31;68596;52.080;4.662;2023-11-21T09:26:33;12.76;80.92
78315;SHT31;68596;52.080;4.662;2023-11-21T09:29:17;12.79;80.79
78315;SHT31;68596;52.080;4.662;2023-11-21T09:32:03;12.76;80.88
78315;SHT31;68596;52.080;4.662;2023-11-21T09:34:48;12.80;80.88
78315;SHT31;68596;52.080;4.662;2023-11-21T09:37:32;12.79;80.80
78315;SHT31;68596;52.080;4.662;2023-11-21T09:40:21;12.76;80.99
78315;SHT31;68596;52.080;4.662;2023-11-21T09:43:10;12.74;80.99
78315;SHT31;68596;52.080;4.662;2023-11-21T09:46:01;12.76;80.87
78315;SHT31;68596;52.080;4.662;2023-11-21T09:48:50;12.68;80.68
78315;SHT31;68596;52.080;4.662;2023-11-21T09:51:39;12.63;80.67
78315;SHT31;68596;52.080;4.662;2023-11-21T09:54:25;12.54;80.87
78315;SHT31;68596;52.080;4.662;2023-11-21T09:57:11;12.50;81.19
78315;SHT31;68596;52.080;4.662;2023-11-21T09:59:55;12.46;81.21
78315;SHT31;68596;52.080;4.662;2023-11-21T10:02:47;12.47;81.21
78315;SHT31;68596;52.080;4.662;2023-11-21T10:05:34;12.51;80.89
78315;SHT31;68596;52.080;4.662;2023-11-21T10:08:22;12.49;80.98
78315;SHT31;68596;52.080;4.662;2023-11-21T10:11:10;12.47;80.74
78315;SHT31;68596;52.080;4.662;2023-11-21T10:13:59;12.40;80.90
78315;SHT31;68596;52.080;4.662;2023-11-21T10:16:47;12.41;80.85
78315;SHT31;68596;52.080;4.662;2023-11-21T10:19:32;12.41;81.06
78315;SHT31;68596;52.080;4.662;2023-11-21T10:22:17;12.40;81.06
78315;SHT31;68596;52.080;4.662;2023-11-21T10:25:01;12.49;81.02
78315;SHT31;68596;52.080;4.662;2023-11-21T10:27:48;12.50;80.94
78315;SHT31;68596;52.080;4.662;2023-11-21T10:30:35;12.57;80.86
78315;SHT31;68596;52.080;4.662;2023-11-21T10:33:27;12.64;80.62
78315;SHT31;68596;52.080;4.662;2023-11-21T10:36:12;12.64;80.14
78315;SHT31;68596;52.080;4.662;2023-11-21T10:38:56;12.57;80.60
78315;SHT31;68596;52.080;4.662;2023-11-21T10:41:41;12.60;80.50
78315;SHT31;68596;52.080;4.662;2023-11-21T10:44:25;12.68;80.29
78315;SHT31;68596;52.080;4.662;2023-11-21T10:47:10;12.64;80.29
78315;SHT31;68596;52.080;4.662;2023-11-21T10:49:55;12.67;79.68
78315;SHT31;68596;52.080;4.662;2023-11-21T10:52:40;12.67;79.97
78315;SHT31;68596;52.080;4.662;2023-11-21T10:55:27;12.68;80.16
78315;SHT31;68596;52.080;4.662;2023-11-21T10:58:13;12.73;80.27
78315;SHT31;68596;52.080;4.662;2023-11-21T11:00:59;12.74;79.93
78315;SHT31;68596;52.080;4.662;2023-11-21T11:03:44;12.79;80.10
78315;SHT31;68596;52.080;4.662;2023-11-21T11:06:29;12.85;80.04
78315;SHT31;68596;52.080;4.662;2023-11-21T11:09:13;12.88;79.99
78315;SHT31;68596;52.080;4.662;2023-11-21T11:11:58;12.88;79.86
78315;SHT31;68596;52.080;4.662;2023-11-21T11:14:43;12.92;79.52
78315;SHT31;68596;52.080;4.662;2023-11-21T11:17:29;12.90;79.45
78315;SHT31;68596;52.080;4.662;2023-11-21T11:20:16;12.85;79.64
78315;SHT31;68596;52.080;4.662;2023-11-21T11:23:36;12.85;79.75
78315;SHT31;68596;52.080;4.662;2023-11-21T11:26:36;12.88;79.56
78315;SHT31;68596;52.080;4.662;2023-11-21T11:29:42;12.83;79.53
78315;SHT31;68596;52.080;4.662;2023-11-21T11:35:47;12.79;79.59
78315;SHT31;68596;52.080;4.662;2023-11-21T11:38:35;12.77;79.68
78315;SHT31;68596;52.080;4.662;2023-11-21T11:41:31;12.80;79.55
78315;SHT31;68596;52.080;4.662;2023-11-21T11:47:32;12.76;79.36
78315;SHT31;68596;52.080;4.662;2023-11-21T11:50:22;12.73;79.42
78315;SHT31;68596;52.080;4.662;2023-11-21T11:53:15;12.71;79.37
78315;SHT31;68596;52.080;4.662;2023-11-21T11:56:28;12.68;79.16
78315;SHT31;68596;52.080;4.662;2023-11-21T11:59:14;12.61;79.20
78315;SHT31;68596;52.080;4.662;2023-11-21T12:01:58;12.59;79.58
78315;SHT31;68596;52.080;4.662;2023-11-21T12:04:43;12.57;79.57
78315;SHT31;68596;52.080;4.662;2023-11-21T12:07:43;12.50;79.79
78315;SHT31;68596;52.080;4.662;2023-11-21T12:10:30;12.51;79.45
78315;SHT31;68596;52.080;4.662;2023-11-21T12:13:16;12.47;79.29
78315;SHT31;68596;52.080;4.662;2023-11-21T12:16:00;12.47;79.34
78315;SHT31;68596;52.080;4.662;2023-11-21T12:18:45;12.50;79.37
78315;SHT31;68596;52.080;4.662;2023-11-21T12:21:29;12.53;79.78
78315;SHT31;68596;52.080;4.662;2023-11-21T12:24:14;12.61;79.37
78315;SHT31;68596;52.080;4.662;2023-11-21T12:27:00;12.60;79.47
78315;SHT31;68596;52.080;4.662;2023-11-21T12:29:44;12.60;79.08
78315;SHT31;68596;52.080;4.662;2023-11-21T12:32:28;12.56;79.01
78315;SHT31;68596;52.080;4.662;2023-11-21T12:35:12;12.61;78.56
78315;SHT31;68596;52.080;4.662;2023-11-21T12:37:57;12.57;78.83
78315;SHT31;68596;52.080;4.662;2023-11-21T12:40:41;12.60;78.95
78315;SHT31;68596;52.080;4.662;2023-11-21T12:43:25;12.63;79.08
78315;SHT31;68596;52.080;4.662;2023-11-21T12:46:11;12.68;78.78
78315;SHT31;68596;52.080;4.662;2023-11-21T12:48:55;12.65;78.50
78315;SHT31;68596;52.080;4.662;2023-11-21T12:51:40;12.70;78.87
78315;SHT31;68596;52.080;4.662;2023-11-21T12:54:25;12.68;78.27
78315;SHT31;68596;52.080;4.662;2023-11-21T12:57:09;12.70;78.35
78315;SHT31;68596;52.080;4.662;2023-11-21T12:59:57;12.65;78.48
78315;SHT31;68596;52.080;4.662;2023-11-21T13:02:42;12.70;78.73
78315;SHT31;68596;52.080;4.662;2023-11-21T13:05:32;12.73;78.55
78315;SHT31;68596;52.080;4.662;2023-11-21T13:08:17;12.74;78.05
78315;SHT31;68596;52.080;4.662;2023-11-21T13:11:05;12.71;78.37
78315;SHT31;68596;52.080;4.662;2023-11-21T13:13:52;12.77;78.07
78315;SHT31;68596;52.080;4.662;2023-11-21T13:16:37;12.76;78.18
78315;SHT31;68596;52.080;4.662;2023-11-21T13:19:23;12.73;78.81
78315;SHT31;68596;52.080;4.662;2023-11-21T13:22:08;12.83;78.00
78315;SHT31;68596;52.080;4.662;2023-11-21T13:24:55;12.81;77.93
78315;SHT31;68596;52.080;4.662;2023-11-21T13:27:39;12.77;78.09
78315;SHT31;68596;52.080;4.662;2023-11-21T13:30:24;12.68;78.41
78315;SHT31;68596;52.080;4.662;2023-11-21T13:33:14;12.67;78.38
78315;SHT31;68596;52.080;4.662;2023-11-21T13:36:05;12.59;78.39
78315;SHT31;68596;52.080;4.662;2023-11-21T13:38:53;12.51;78.57
78315;SHT31;68596;52.080;4.662;2023-11-21T13:41:37;12.53;78.82
78315;SHT31;68596;52.080;4.662;2023-11-21T13:44:23;12.49;78.23
78315;SHT31;68596;52.080;4.662;2023-11-21T13:47:19;12.39;78.60
78315;SHT31;68596;52.080;4.662;2023-11-21T13:50:04;12.34;78.20
78315;SHT31;68596;52.080;4.662;2023-11-21T13:52:58;12.33;78.73
78315;SHT31;68596;52.080;4.662;2023-11-21T13:55:47;12.34;78.22
78315;SHT31;68596;52.080;4.662;2023-11-21T13:58:33;12.32;78.13
78315;SHT31;68596;52.080;4.662;2023-11-21T14:01:34;12.26;78.39
78315;SHT31;68596;52.080;4.662;2023-11-21T14:04:37;12.25;78.17
78315;SHT31;68596;52.080;4.662;2023-11-21T14:07:38;12.28;78.14
78315;SHT31;68596;52.080;4.662;2023-11-21T14:10:23;12.25;78.31
78315;SHT31;68596;52.080;4.662;2023-11-21T14:13:09;12.20;78.01
78315;SHT31;68596;52.080;4.662;2023-11-21T14:15:54;12.18;77.88
78315;SHT31;68596;52.080;4.662;2023-11-21T14:18:43;12.06;77.53
78315;SHT31;68596;52.080;4.662;2023-11-21T14:21:39;11.98;77.96
78315;SHT31;68596;52.080;4.662;2023-11-21T14:24:27;11.96;78.24
78315;SHT31;68596;52.080;4.662;2023-11-21T14:27:14;11.95;78.38
78315;SHT31;68596;52.080;4.662;2023-11-21T14:29:58;12.02;78.20
78315;SHT31;68596;52.080;4.662;2023-11-21T14:32:43;12.05;77.69
78315;SHT31;68596;52.080;4.662;2023-11-21T14:35:27;12.02;77.96
78315;SHT31;68596;52.080;4.662;2023-11-21T14:38:14;12.02;77.54
78315;SHT31;68596;52.080;4.662;2023-11-21T14:40:58;11.90;77.68
78315;SHT31;68596;52.080;4.662;2023-11-21T14:43:42;11.89;77.89
78315;SHT31;68596;52.080;4.662;2023-11-21T14:46:29;11.89;77.86
78315;SHT31;68596;52.080;4.662;2023-11-21T14:49:13;11.89;77.64
78315;SHT31;68596;52.080;4.662;2023-11-21T14:52:07;11.85;76.94
78315;SHT31;68596;52.080;4.662;2023-11-21T14:55:07;11.76;77.25
78315;SHT31;68596;52.080;4.662;2023-11-21T14:58:05;11.79;77.50
78315;SHT31;68596;52.080;4.662;2023-11-21T15:00:49;11.78;77.83
78315;SHT31;68596;52.080;4.662;2023-11-21T15:03:35;11.79;77.46
78315;SHT31;68596;52.080;4.662;2023-11-21T15:06:27;11.82;77.68
78315;SHT31;68596;52.080;4.662;2023-11-21T15:09:14;11.86;77.54
78315;SHT31;68596;52.080;4.662;2023-11-21T15:11:59;11.85;77.33
78315;SHT31;68596;52.080;4.662;2023-11-21T15:14:58;11.85;77.32
78315;SHT31;68596;52.080;4.662;2023-11-21T15:17:42;11.81;77.25
78315;SHT31;68596;52.080;4.662;2023-11-21T15:20:27;11.76;77.33
78315;SHT31;68596;52.080;4.662;2023-11-21T15:23:12;11.74;77.92
78315;SHT31;68596;52.080;4.662;2023-11-21T15:25:57;11.74;77.93
78315;SHT31;68596;52.080;4.662;2023-11-21T15:28:41;11.78;77.96
78315;SHT31;68596;52.080;4.662;2023-11-21T15:31:25;11.82;78.01
78315;SHT31;68596;52.080;4.662;2023-11-21T15:34:09;11.79;77.14
78315;SHT31;68596;52.080;4.662;2023-11-21T15:36:54;11.69;76.50
78315;SHT31;68596;52.080;4.662;2023-11-21T15:39:39;11.61;76.31
78315;SHT31;68596;52.080;4.662;2023-11-21T15:42:23;11.50;76.31
78315;SHT31;68596;52.080;4.662;2023-11-21T15:45:08;11.47;77.25
78315;SHT31;68596;52.080;4.662;2023-11-21T15:47:53;11.51;76.66
78315;SHT31;68596;52.080;4.662;2023-11-21T15:50:37;11.52;76.86
78315;SHT31;68596;52.080;4.662;2023-11-21T15:53:22;11.48;76.54
78315;SHT31;68596;52.080;4.662;2023-11-21T15:56:06;11.47;76.51
78315;SHT31;68596;52.080;4.662;2023-11-21T15:58:54;11.44;76.36
78315;SHT31;68596;52.080;4.662;2023-11-21T16:01:38;11.42;77.05
78315;SHT31;68596;52.080;4.662;2023-11-21T16:04:27;11.47;76.71
78315;SHT31;68596;52.080;4.662;2023-11-21T16:07:12;11.47;76.13
78315;SHT31;68596;52.080;4.662;2023-11-21T16:09:56;11.47;76.57
78315;SHT31;68596;52.080;4.662;2023-11-21T16:12:41;11.44;76.39
78315;SHT31;68596;52.080;4.662;2023-11-21T16:15:26;11.38;76.43
78315;SHT31;68596;52.080;4.662;2023-11-21T16:18:10;11.39;76.49
78315;SHT31;68596;52.080;4.662;2023-11-21T16:20:55;11.41;76.01
78315;SHT31;68596;52.080;4.662;2023-11-21T16:23:39;11.34;75.79
78315;SHT31;68596;52.080;4.662;2023-11-21T16:26:25;11.32;75.79
78315;SHT31;68596;52.080;4.662;2023-11-21T16:29:09;11.30;76.08
78315;SHT31;68596;52.080;4.662;2023-11-21T16:31:55;11.25;75.66
78315;SHT31;68596;52.080;4.662;2023-11-21T16:34:39;11.21;76.22
78315;SHT31;68596;52.080;4.662;2023-11-21T16:37:25;11.20;76.01
78315;SHT31;68596;52.080;4.662;2023-11-21T16:40:09;11.17;76.44
78315;SHT31;68596;52.080;4.662;2023-11-21T16:42:55;11.21;75.81
78315;SHT31;68596;52.080;4.662;2023-11-21T16:45:40;11.21;75.69
78315;SHT31;68596;52.080;4.662;2023-11-21T16:48:25;11.17;75.87
78315;SHT31;68596;52.080;4.662;2023-11-21T16:51:09;11.17;75.54
78315;SHT31;68596;52.080;4.662;2023-11-21T16:53:55;11.15;75.87
78315;SHT31;68596;52.080;4.662;2023-11-21T16:56:39;11.13;75.21
78315;SHT31;68596;52.080;4.662;2023-11-21T16:59:23;11.14;75.30
78315;SHT31;68596;52.080;4.662;2023-11-21T17:02:08;11.13;75.25
78315;SHT31;68596;52.080;4.662;2023-11-21T17:04:55;11.11;75.55
78315;SHT31;68596;52.080;4.662;2023-11-21T17:07:39;11.11;75.45
78315;SHT31;68596;52.080;4.662;2023-11-21T17:10:23;11.11;75.27
78315;SHT31;68596;52.080;4.662;2023-11-21T17:13:07;11.11;75.19
78315;SHT31;68596;52.080;4.662;2023-11-21T17:15:52;11.06;75.39
78315;SHT31;68596;52.080;4.662;2023-11-21T17:18:36;11.06;75.27
78315;SHT31;68596;52.080;4.662;2023-11-21T17:21:20;11.07;75.16
78315;SHT31;68596;52.080;4.662;2023-11-21T17:24:04;11.10;75.63
78315;SHT31;68596;52.080;4.662;2023-11-21T17:26:48;11.11;75.82
78315;SHT31;68596;52.080;4.662;2023-11-21T17:29:32;11.14;75.64
78315;SHT31;68596;52.080;4.662;2023-11-21T17:32:16;11.18;75.81